Time;durP1;ratioP1;P1;durP2;ratioP2;P2;SDS_P1;SDS_P2;PMS_P1;PMS_P2;Temp;Humidity;BMP_temperature;BMP_pressure;BME280_temperature;BME280_humidity;BME280_pressure;Samples;Min_cycle;Max_cycle;Signal;HPM_P1;HPM_P2
2021/12/15 00:01:58;;;;;;;106.70;54.15;;;;;;;7.59;100.00;102829.72;5094820;28;20036;-56
2021/12/15 00:04:24;;;;;;;104.25;52.25;;;;;;;7.56;100.00;102832.97;5095046;28;20016;-56
2021/12/15 00:06:49;;;;;;;104.93;53.28;;;;;;;7.55;100.00;102827.72;5094997;28;20031;-56
2021/12/15 00:09:15;;;;;;;103.43;53.47;;;;;;;7.55;100.00;102833.75;5094493;28;20028;-56
2021/12/15 00:11:42;;;;;;;111.88;54.75;;;;;;;7.51;100.00;102830.84;5095200;28;20028;-56
2021/12/15 00:14:14;;;;;;;110.18;55.15;;;;;;;7.51;100.00;102835.97;5095606;28;20020;-57
2021/12/15 00:16:40;;;;;;;109.28;54.22;;;;;;;7.50;100.00;102829.97;5095569;28;20028;-56
2021/12/15 00:19:06;;;;;;;108.60;54.55;;;;;;;7.50;100.00;102824.84;5095306;28;20032;-57
2021/12/15 00:21:32;;;;;;;111.18;54.92;;;;;;;7.50;100.00;102829.97;5094967;28;20024;-56
2021/12/15 00:23:58;;;;;;;118.72;54.08;;;;;;;7.48;100.00;102821.25;5094925;28;20078;-56
2021/12/15 00:26:24;;;;;;;115.55;58.20;;;;;;;7.50;100.00;102824.84;5095097;28;20059;-57
2021/12/15 00:28:51;;;;;;;123.57;58.10;;;;;;;7.49;100.00;102825.59;5094550;28;20039;-57
2021/12/15 00:31:17;;;;;;;114.95;55.60;;;;;;;7.47;100.00;102822.03;5095138;28;20073;-57
2021/12/15 00:33:43;;;;;;;117.03;54.70;;;;;;;7.48;100.00;102821.25;5094867;28;20024;-57
2021/12/15 00:36:09;;;;;;;118.40;57.50;;;;;;;7.47;100.00;102822.03;5094664;28;20020;-56
2021/12/15 00:38:35;;;;;;;113.47;55.03;;;;;;;7.49;100.00;102828.19;5095099;28;20025;-56
2021/12/15 00:41:00;;;;;;;114.93;55.33;;;;;;;7.48;100.00;102816.13;5095054;28;20024;-56
2021/12/15 00:43:26;;;;;;;114.60;55.28;;;;;;;7.49;100.00;102815.34;5094236;28;20024;-56
2021/12/15 00:45:51;;;;;;;112.10;53.08;;;;;;;7.49;100.00;102817.00;5094087;28;20467;-56
2021/12/15 00:48:17;;;;;;;118.40;54.28;;;;;;;7.48;100.00;102816.13;5094951;28;20024;-56
2021/12/15 00:50:46;;;;;;;117.85;55.45;;;;;;;7.48;100.00;102820.38;5094069;28;20055;-56
2021/12/15 00:53:12;;;;;;;109.63;52.60;;;;;;;7.48;100.00;102812.69;5094354;28;20530;-56
2021/12/15 00:55:38;;;;;;;118.25;55.60;;;;;;;7.46;100.00;102815.09;5094587;28;20059;-57
2021/12/15 00:58:04;;;;;;;114.07;54.60;;;;;;;7.47;100.00;102814.31;5093569;28;20077;-57
2021/12/15 01:00:35;;;;;;;122.00;56.25;;;;;;;7.46;100.00;102807.41;5094776;28;20023;-57
2021/12/15 01:03:06;;;;;;;115.80;55.33;;;;;;;7.49;100.00;102812.78;5094145;28;20036;-57
2021/12/15 01:05:36;;;;;;;108.50;53.47;;;;;;;7.46;100.00;102809.97;5093412;28;20430;-57
2021/12/15 01:08:05;;;;;;;112.05;54.88;;;;;;;7.47;100.00;102822.03;5093964;28;20031;-57
2021/12/15 01:10:50;;;;;;;108.53;52.13;;;;;;;7.49;100.00;102822.13;5094451;28;20054;-56
2021/12/15 01:21:27;;;;;;;106.28;53.05;;;;;;;7.49;100.00;102828.19;5094059;28;20446;-56
2021/12/15 01:23:53;;;;;;;103.78;50.38;;;;;;;7.49;100.00;102822.13;5093790;28;20460;-57
2021/12/15 01:26:18;;;;;;;107.88;51.00;;;;;;;7.49;100.00;102817.91;5093049;28;20142;-57
2021/12/15 01:28:44;;;;;;;97.75;48.75;;;;;;;7.49;100.00;102823.03;5093853;28;20035;-57
2021/12/15 01:31:10;;;;;;;105.50;51.15;;;;;;;7.49;100.00;102817.91;5094034;28;20020;-56
2021/12/15 01:33:37;;;;;;;105.30;51.63;;;;;;;7.50;100.00;102824.84;5093400;28;20081;-56
2021/12/15 01:36:06;;;;;;;104.03;50.33;;;;;;;7.49;100.00;102823.03;5093189;28;20490;-56
2021/12/15 01:38:34;;;;;;;105.10;51.03;;;;;;;7.50;100.00;102822.28;5093679;28;20099;-57
2021/12/15 01:41:00;;;;;;;;;;;;;;;7.56;100.00;102820.13;5093160;28;20356;-56
2021/12/15 01:43:47;;;;;;;101.95;50.03;;;;;;;7.50;100.00;102827.41;5093506;28;20404;-56
2021/12/15 01:49:07;;;;;;;106.78;50.22;;;;;;;7.51;100.00;102821.47;5093426;28;20470;-57
2021/12/15 01:51:32;;;;;;;101.28;50.38;;;;;;;7.49;100.00;102828.19;5093696;28;20034;-56
2021/12/15 01:53:58;;;;;;;107.38;51.25;;;;;;;7.50;100.00;102829.97;5093399;28;20028;-56
2021/12/15 01:56:24;;;;;;;104.07;49.17;;;;;;;7.51;100.00;102830.84;5093597;28;20483;-56
2021/12/15 01:58:49;;;;;;;104.18;50.17;;;;;;;7.51;100.00;102830.84;5093521;28;20032;-56
2021/12/15 02:01:15;;;;;;;100.80;49.97;;;;;;;7.51;100.00;102834.28;5093061;28;20030;-56
2021/12/15 02:03:41;;;;;;;103.20;50.20;;;;;;;7.52;100.00;102838.66;5093475;28;20099;-56
2021/12/15 02:06:08;;;;;;;100.93;50.17;;;;;;;7.51;100.00;102842.00;5093449;28;20028;-56
2021/12/15 02:08:34;;;;;;;104.28;50.75;;;;;;;7.52;100.00;102846.34;5092732;28;20099;-56
2021/12/15 02:11:00;;;;;;;107.28;50.00;;;;;;;7.53;100.00;102840.44;5093186;28;20056;-56
2021/12/15 02:13:25;;;;;;;104.32;48.25;;;;;;;7.53;100.00;102850.72;5093136;28;20391;-57
2021/12/15 02:15:54;;;;;;;101.70;48.70;;;;;;;7.54;100.00;102846.47;5092481;28;20453;-57
2021/12/15 02:18:27;;;;;;;102.85;50.30;;;;;;;7.53;100.00;102845.56;5092813;28;20035;-56
2021/12/15 02:20:57;;;;;;;103.20;47.50;;;;;;;7.54;100.00;102847.38;5092793;28;20356;-57
2021/12/15 02:23:32;;;;;;;98.68;48.47;;;;;;;7.55;100.00;102853.38;5092544;28;20127;-56
2021/12/15 02:25:58;;;;;;;101.93;47.50;;;;;;;7.56;100.00;102856.06;5092684;28;20479;-56
2021/12/15 02:28:24;;;;;;;101.72;48.67;;;;;;;7.54;100.00;102849.94;5092359;28;20040;-56
2021/12/15 02:31:15;;;;;;;103.47;47.75;;;;;;;7.56;100.00;102850.03;5092549;28;20030;-57
2021/12/15 02:38:48;;;;;;;100.97;48.05;;;;;;;7.56;100.00;102848.34;5093246;28;20116;-56
2021/12/15 02:41:23;;;;;;;106.50;50.25;;;;;;;7.54;100.00;102839.66;5093153;28;20055;-56
2021/12/15 02:43:51;;;;;;;102.10;49.45;;;;;;;7.55;100.00;102846.59;5092531;28;20418;-57
2021/12/15 02:46:16;;;;;;;106.50;50.80;;;;;;;7.54;100.00;102842.25;5093322;28;20365;-57
2021/12/15 02:48:42;;;;;;;104.97;48.28;;;;;;;7.55;100.00;102849.16;5093291;28;20097;-57
2021/12/15 02:51:09;;;;;;;107.90;49.85;;;;;;;7.55;100.00;102844.03;5092501;28;20028;-56
2021/12/15 02:53:34;;;;;;;105.55;51.13;;;;;;;7.56;100.00;102844.91;5092861;28;20059;-56
2021/12/15 02:55:59;;;;;;;103.63;50.55;;;;;;;7.55;100.00;102845.69;5092937;28;20533;-56
2021/12/15 02:58:32;;;;;;;104.60;48.88;;;;;;;7.55;100.00;102844.03;5092453;28;20024;-56
2021/12/15 03:01:03;;;;;;;109.70;49.75;;;;;;;7.54;100.00;102847.38;5092557;28;20035;-55
2021/12/15 03:04:03;;;;;;;99.93;48.35;;;;;;;7.56;100.00;102844.91;5092614;28;20024;-55
2021/12/15 03:06:30;;;;;;;102.15;48.63;;;;;;;7.56;100.00;102840.66;5092648;28;20369;-56
2021/12/15 03:17:10;;;;;;;101.60;47.88;;;;;;;7.58;100.00;102839.13;5065641;28;20040;-56
2021/12/15 03:19:35;;;;;;;104.70;46.85;;;;;;;7.58;100.00;102841.69;5096155;28;20029;-55
2021/12/15 03:22:01;;;;;;;102.03;48.58;;;;;;;7.60;100.00;102840.91;5096004;28;20497;-55
2021/12/15 03:24:27;;;;;;;106.40;50.53;;;;;;;7.57;100.00;102834.75;5096166;28;20084;-55
2021/12/15 03:27:01;;;;;;;108.07;48.15;;;;;;;7.57;100.00;102834.75;5096226;28;20061;-55
2021/12/15 03:35:17;;;;;;;103.35;48.35;;;;;;;7.61;100.00;102837.56;5096403;28;20462;-55
2021/12/15 03:37:48;;;;;;;104.95;48.28;;;;;;;7.60;100.00;102836.66;5095882;28;20388;-56
2021/12/15 03:40:27;;;;;;;98.80;46.50;;;;;;;7.61;100.00;102837.56;5094886;28;20463;-56
2021/12/15 03:43:00;;;;;;;103.03;46.75;;;;;;;7.61;100.00;102832.44;5095005;28;20365;-55
2021/12/15 03:45:30;;;;;;;97.32;47.50;;;;;;;7.60;100.00;102831.53;5094765;28;20035;-55
2021/12/15 03:47:59;;;;;;;104.13;47.60;;;;;;;7.60;100.00;102841.78;5095528;28;20484;-56
2021/12/15 03:50:26;;;;;;;104.40;47.78;;;;;;;7.61;100.00;102847.84;5095295;28;20032;-55
2021/12/15 03:52:52;;;;;;;106.95;48.25;;;;;;;7.62;100.00;102849.59;5095456;28;20016;-55
2021/12/15 03:55:22;;;;;;;96.18;46.97;;;;;;;7.61;100.00;102852.97;5095495;28;20035;-55
2021/12/15 03:57:47;;;;;;;103.93;46.90;;;;;;;7.62;100.00;102855.63;5095502;28;20028;-56
2021/12/15 04:00:15;;;;;;;99.65;44.95;;;;;;;7.63;100.00;102861.66;5094961;28;20053;-56
2021/12/15 04:02:41;;;;;;;93.82;46.50;;;;;;;7.63;100.00;102853.94;5094896;28;20035;-56
2021/12/15 04:05:11;;;;;;;96.85;45.75;;;;;;;7.64;100.00;102860.88;5095389;28;20028;-55
2021/12/15 04:07:37;;;;;;;102.53;47.28;;;;;;;7.65;100.00;102860.09;5095082;28;20028;-56
2021/12/15 04:10:05;;;;;;;92.15;45.85;;;;;;;7.64;100.00;102863.44;5094849;28;20032;-56
2021/12/15 04:12:31;;;;;;;95.22;45.03;;;;;;;7.63;100.00;102852.28;5095177;28;20052;-56
2021/12/15 04:15:17;;;;;;;93.32;45.83;;;;;;;7.64;100.00;102858.31;5094294;28;20384;-56
2021/12/15 04:17:41;;;;;;;94.40;45.38;;;;;;;7.64;100.00;102851.50;5094861;28;20107;-56
2021/12/15 04:20:12;;;;;;;96.25;45.85;;;;;;;7.65;100.00;102862.66;5094394;28;20468;-56
2021/12/15 04:22:38;;;;;;;93.20;45.35;;;;;;;7.66;100.00;102856.75;5094560;28;20361;-55
2021/12/15 04:25:10;;;;;;;94.30;45.53;;;;;;;7.66;100.00;102862.78;5094521;28;20024;-56
2021/12/15 04:27:35;;;;;;;90.78;44.60;;;;;;;7.67;100.00;102858.53;5094479;28;20427;-55
2021/12/15 04:30:02;;;;;;;87.43;43.15;;;;;;;7.67;100.00;102862.00;5094973;28;20016;-56
2021/12/15 04:32:32;;;;;;;90.57;43.95;;;;;;;7.68;100.00;102870.59;5094863;28;20016;-56
2021/12/15 04:34:59;;;;;;;95.15;44.83;;;;;;;7.67;100.00;102868.78;5094505;28;20065;-55
2021/12/15 04:37:24;;;;;;;89.28;44.08;;;;;;;7.68;100.00;102862.88;5094805;28;20024;-55
2021/12/15 04:39:49;;;;;;;85.45;42.58;;;;;;;7.67;100.00;102871.34;5094790;28;20395;-55
2021/12/15 04:42:18;;;;;;;93.82;44.05;;;;;;;7.66;100.00;102869.59;5093961;28;20036;-56
2021/12/15 04:44:45;;;;;;;89.53;43.90;;;;;;;7.67;100.00;102866.22;5094254;28;20020;-56
2021/12/15 04:47:11;;;;;;;95.03;44.20;;;;;;;7.67;100.00;102868.78;5094680;28;20052;-56
2021/12/15 04:49:44;;;;;;;88.97;42.85;;;;;;;7.68;100.00;102870.59;5094074;28;20038;-56
2021/12/15 04:52:12;;;;;;;85.13;42.70;;;;;;;7.66;100.00;102875.59;5094165;28;20062;-56
2021/12/15 04:54:37;;;;;;;84.10;43.17;;;;;;;7.67;100.00;102871.34;5094352;28;20082;-55
2021/12/15 04:57:04;;;;;;;81.07;42.75;;;;;;;7.69;100.00;102882.63;5093801;28;20475;-55
2021/12/15 04:59:29;;;;;;;88.03;42.78;;;;;;;7.68;100.00;102875.72;5094546;28;20032;-55
2021/12/15 05:01:55;;;;;;;87.28;42.22;;;;;;;7.68;100.00;102880.84;5094547;28;20026;-56
2021/12/15 05:04:21;;;;;;;85.93;42.70;;;;;;;7.68;100.00;102876.63;5093716;28;20031;-55
2021/12/15 05:06:46;;;;;;;87.72;43.47;;;;;;;7.69;100.00;102886.09;5093921;28;20024;-56
2021/12/15 05:09:14;;;;;;;88.00;42.75;;;;;;;7.71;100.00;102881.09;5094214;28;20023;-56
2021/12/15 05:11:39;;;;;;;87.20;43.65;;;;;;;7.69;100.00;102877.50;5093691;28;20069;-55
2021/12/15 05:14:05;;;;;;;87.90;41.83;;;;;;;7.70;100.00;102889.56;5094223;28;20019;-56
2021/12/15 05:16:30;;;;;;;87.75;41.63;;;;;;;7.70;100.00;102879.31;5094187;28;20383;-56
2021/12/15 05:18:55;;;;;;;88.28;41.47;;;;;;;7.69;100.00;102885.22;5093675;28;20039;-56
2021/12/15 05:21:23;;;;;;;88.40;42.75;;;;;;;7.70;100.00;102885.31;5093911;28;20068;-56
2021/12/15 05:23:54;;;;;;;85.80;42.63;;;;;;;7.69;100.00;102886.09;5093913;28;20027;-56
2021/12/15 05:26:20;;;;;;;85.53;41.90;;;;;;;7.70;100.00;102894.69;5093463;28;20044;-55
2021/12/15 05:28:45;;;;;;;83.50;42.08;;;;;;;7.69;100.00;102892.91;5093825;28;20035;-55
2021/12/15 05:31:13;;;;;;;81.10;40.58;;;;;;;7.69;100.00;102892.91;5092981;28;20036;-56
2021/12/15 05:33:39;;;;;;;83.35;41.20;;;;;;;7.70;100.00;102889.56;5093435;28;20490;-56
2021/12/15 05:36:05;;;;;;;85.45;42.35;;;;;;;7.69;100.00;102892.91;5093809;28;20024;-55
2021/12/15 05:38:30;;;;;;;83.70;40.63;;;;;;;7.67;100.00;102887.66;5093419;28;20024;-56
2021/12/15 05:40:57;;;;;;;84.13;41.55;;;;;;;7.70;100.00;102889.56;5093809;28;20017;-56
2021/12/15 05:43:23;;;;;;;80.88;41.70;;;;;;;7.70;100.00;102894.69;5094021;28;20028;-55
2021/12/15 05:45:50;;;;;;;87.10;41.53;;;;;;;7.71;100.00;102896.50;5093156;28;20024;-56
2021/12/15 05:48:16;;;;;;;83.55;41.33;;;;;;;7.69;100.00;102892.91;5093478;28;20467;-57
2021/12/15 05:50:43;;;;;;;85.30;42.08;;;;;;;7.70;100.00;102889.56;5093547;28;20020;-56
2021/12/15 05:53:09;;;;;;;82.38;41.50;;;;;;;7.68;100.00;102891.13;5092973;28;20103;-56
2021/12/15 05:55:34;;;;;;;85.72;41.47;;;;;;;7.70;100.00;102889.56;5093903;28;20106;-55
2021/12/15 05:58:00;;;;;;;86.85;40.97;;;;;;;7.69;100.00;102892.91;5093553;28;20028;-56
2021/12/15 06:00:31;;;;;;;79.88;40.15;;;;;;;7.70;100.00;102894.69;5093070;28;20016;-56
2021/12/15 06:02:57;;;;;;;87.22;41.88;;;;;;;7.70;100.00;102899.84;5092986;28;20028;-56
2021/12/15 06:05:24;;;;;;;94.63;44.35;;;;;;;7.71;100.00;102899.06;5093518;28;20039;-56
2021/12/15 06:07:50;;;;;;;85.85;41.22;;;;;;;7.70;100.00;102899.84;5093171;28;20420;-56
2021/12/15 06:10:21;;;;;;;97.43;43.50;;;;;;;7.70;100.00;102900.72;5093539;28;20061;-56
2021/12/15 06:12:49;;;;;;;94.50;43.40;;;;;;;7.71;100.00;102906.75;5094097;28;20028;-56
2021/12/15 06:15:21;;;;;;;89.32;42.25;;;;;;;7.70;100.00;102905.84;5093261;28;20063;-56
2021/12/15 06:17:49;;;;;;;92.78;43.53;;;;;;;7.71;100.00;102906.75;5093130;28;20139;-55
2021/12/15 06:20:14;;;;;;;94.18;43.85;;;;;;;7.72;100.00;102898.25;5092837;28;20028;-56
2021/12/15 06:22:41;;;;;;;94.93;43.22;;;;;;;7.71;100.00;102904.19;5093026;28;20368;-55
2021/12/15 06:25:06;;;;;;;94.97;42.58;;;;;;;7.71;100.00;102911.91;5093559;28;20468;-55
2021/12/15 06:27:35;;;;;;;96.75;43.53;;;;;;;7.74;100.00;102917.25;5092759;28;20053;-55
2021/12/15 06:30:01;;;;;;;97.90;42.08;;;;;;;7.72;100.00;102913.66;5092588;28;20380;-55
2021/12/15 06:32:27;;;;;;;92.30;42.83;;;;;;;7.72;100.00;102913.66;5092608;28;20494;-55
2021/12/15 06:34:52;;;;;;;90.97;43.00;;;;;;;7.73;100.00;102918.00;5092017;28;20024;-56
2021/12/15 06:37:17;;;;;;;90.22;43.45;;;;;;;7.73;100.00;102918.94;5092484;28;20032;-55
2021/12/15 06:39:43;;;;;;;96.57;43.17;;;;;;;7.73;100.00;102918.00;5092668;28;20024;-56
2021/12/15 06:42:08;;;;;;;98.68;44.05;;;;;;;7.73;100.00;102920.59;5092038;28;20035;-55
2021/12/15 06:44:33;;;;;;;101.32;44.45;;;;;;;7.74;100.00;102917.25;5095779;28;20024;-56
2021/12/15 06:47:21;;;;;;;99.30;44.97;;;;;;;7.72;100.00;102919.69;5096321;28;20437;-56
2021/12/15 07:00:47;;;;;;;105.63;45.35;;;;;;;7.74;100.00;102922.38;5096369;28;20052;-55
2021/12/15 07:03:13;;;;;;;104.65;46.17;;;;;;;7.73;100.00;102929.19;5095379;28;20391;-55
2021/12/15 07:05:39;;;;;;;105.38;46.35;;;;;;;7.73;100.00;102930.84;5095899;28;20020;-56
2021/12/15 07:08:07;;;;;;;102.00;45.90;;;;;;;7.72;100.00;102932.53;5095815;28;20021;-55
2021/12/15 07:10:37;;;;;;;104.25;45.95;;;;;;;7.73;100.00;102939.47;5095409;28;20477;-56
2021/12/15 07:13:03;;;;;;;110.43;46.70;;;;;;;7.73;100.00;102939.47;5095731;28;20040;-55
2021/12/15 07:15:28;;;;;;;107.45;45.97;;;;;;;7.74;100.00;102942.91;5096162;28;20502;-56
2021/12/15 07:18:01;;;;;;;108.55;46.80;;;;;;;7.75;100.00;102944.72;5095279;28;20114;-55
2021/12/15 07:23:00;;;;;;;106.20;47.70;;;;;;;7.75;100.00;102947.28;5095528;28;20475;-56
2021/12/15 07:25:28;;;;;;;108.93;47.28;;;;;;;7.74;100.00;102950.63;5094954;28;20443;-56
2021/12/15 07:27:54;;;;;;;110.72;48.17;;;;;;;7.79;100.00;102948.41;5095141;28;20495;-55
2021/12/15 07:30:20;;;;;;;113.38;47.67;;;;;;;7.76;100.00;102956.78;5095424;28;20077;-56
2021/12/15 07:32:45;;;;;;;112.55;48.17;;;;;;;7.76;100.00;102951.63;5094581;28;20378;-56
2021/12/15 07:35:14;;;;;;;110.97;48.20;;;;;;;7.77;100.00;102952.50;5095337;28;20103;-55
2021/12/15 07:37:39;;;;;;;109.40;47.42;;;;;;;7.77;100.00;102953.41;5095060;28;20062;-55
2021/12/15 07:40:10;;;;;;;115.07;48.47;;;;;;;7.75;100.00;102954.97;5095175;28;20032;-56
2021/12/15 07:42:43;;;;;;;120.90;48.60;;;;;;;7.77;100.00;102957.66;5095472;28;20035;-55
2021/12/15 07:45:11;;;;;;;120.35;48.83;;;;;;;7.76;100.00;102951.63;5094822;28;20028;-55
2021/12/15 07:47:37;;;;;;;109.53;47.40;;;;;;;7.78;100.00;102950.06;5095002;28;20096;-56
2021/12/15 07:50:04;;;;;;;110.95;47.35;;;;;;;7.79;100.00;102963.81;5095245;28;20046;-55
2021/12/15 07:52:30;;;;;;;120.43;48.58;;;;;;;7.79;100.00;102958.66;5094978;28;20093;-55
2021/12/15 07:54:56;;;;;;;114.38;49.03;;;;;;;7.78;100.00;102960.31;5094788;28;20027;-55
2021/12/15 07:57:23;;;;;;;119.28;48.72;;;;;;;7.78;100.00;102965.47;5095126;28;20032;-56
2021/12/15 07:59:50;;;;;;;112.50;49.08;;;;;;;7.79;100.00;102961.25;5094353;28;20047;-56
2021/12/15 08:02:16;;;;;;;120.03;48.55;;;;;;;7.80;100.00;102969.06;5094517;28;20032;-56
2021/12/15 08:04:41;;;;;;;126.45;50.53;;;;;;;7.79;100.00;102959.56;5094783;28;20028;-56
2021/12/15 08:07:07;;;;;;;123.55;49.92;;;;;;;7.79;100.00;102954.41;5094596;28;20039;-56
2021/12/15 08:09:32;;;;;;;117.88;47.83;;;;;;;7.81;100.00;102965.72;5094837;28;20054;-55
2021/12/15 08:11:58;;;;;;;132.27;50.08;;;;;;;7.82;100.00;102971.72;5094817;28;20036;-56
2021/12/15 08:14:23;;;;;;;121.40;50.05;;;;;;;7.82;100.00;102977.75;5094269;28;20031;-56
2021/12/15 08:16:49;;;;;;;125.45;48.33;;;;;;;7.82;100.00;102972.59;5094362;28;20024;-56
2021/12/15 08:19:16;;;;;;;118.72;49.83;;;;;;;7.83;100.00;102976.09;5094850;28;20585;-56
2021/12/15 08:21:43;;;;;;;124.17;50.73;;;;;;;7.84;100.00;102976.19;5094190;28;20031;-55
2021/12/15 08:24:08;;;;;;;134.53;52.37;;;;;;;7.84;100.00;102976.19;5094927;28;20112;-56
2021/12/15 08:26:34;;;;;;;121.03;50.75;;;;;;;7.86;100.00;102978.88;5094439;28;20488;-56
2021/12/15 08:29:00;;;;;;;125.40;51.58;;;;;;;7.85;100.00;102977.06;5093620;28;20024;-56
2021/12/15 08:31:25;;;;;;;130.02;52.05;;;;;;;7.87;100.00;102975.53;5094340;28;20027;-56
2021/12/15 08:33:50;;;;;;;118.90;49.60;;;;;;;7.87;100.00;102976.41;5093822;28;20032;-56
2021/12/15 08:36:16;;;;;;;130.63;52.70;;;;;;;7.88;100.00;102977.31;5094105;28;20471;-55
2021/12/15 08:38:44;;;;;;;130.75;52.88;;;;;;;7.89;100.00;102979.13;5094201;28;20020;-56
2021/12/15 08:41:15;;;;;;;117.43;49.67;;;;;;;7.91;100.00;102978.47;5093563;28;20474;-56
2021/12/15 08:43:40;;;;;;;127.97;52.30;;;;;;;7.93;100.00;102988.84;5093761;28;20066;-56
2021/12/15 08:46:11;;;;;;;131.32;53.08;;;;;;;7.93;100.00;102981.13;5093833;28;20051;-56
2021/12/15 08:48:39;;;;;;;123.90;51.90;;;;;;;7.94;100.00;102982.94;5093786;28;20054;-56
2021/12/15 08:51:06;;;;;;;113.13;51.33;;;;;;;7.97;100.00;102987.41;5093806;28;20020;-56
2021/12/15 08:53:33;;;;;;;119.25;51.53;;;;;;;7.96;100.00;102990.75;5093989;28;20129;-56
2021/12/15 08:55:59;;;;;;;119.25;50.67;;;;;;;7.98;100.00;102981.44;5093363;28;20028;-55
2021/12/15 08:58:24;;;;;;;123.32;52.35;;;;;;;7.99;100.00;102985.81;5093304;28;20426;-56
2021/12/15 09:00:53;;;;;;;117.15;50.72;;;;;;;8.00;100.00;102983.34;5093886;28;20023;-56
2021/12/15 09:03:20;;;;;;;116.45;50.45;;;;;;;8.01;100.00;102981.69;5093133;28;20463;-56
2021/12/15 09:05:49;;;;;;;118.30;51.97;;;;;;;8.03;100.00;102985.25;5093059;28;20031;-56
2021/12/15 09:08:14;;;;;;;111.90;50.50;;;;;;;8.05;100.00;102991.41;5093783;28;20104;-56
2021/12/15 09:10:43;;;;;;;119.03;52.25;;;;;;;8.05;100.00;102991.41;5092876;28;20016;-56
2021/12/15 09:13:12;;;;;;;124.75;54.13;;;;;;;8.06;100.00;103003.47;5093299;28;20491;-56
2021/12/15 09:15:40;;;;;;;121.93;52.30;;;;;;;8.08;100.00;103001.91;5093694;28;20040;-56
2021/12/15 09:18:06;;;;;;;118.57;52.20;;;;;;;8.07;100.00;102993.31;5092941;28;20458;-56
2021/12/15 09:20:33;;;;;;;111.97;51.63;;;;;;;8.11;100.00;102996.09;5093707;28;20051;-56
2021/12/15 09:23:01;;;;;;;114.63;53.67;;;;;;;8.11;100.00;102999.59;5092961;28;20039;-56
2021/12/15 09:25:27;;;;;;;113.90;50.72;;;;;;;8.14;100.00;102999.78;5093203;28;20379;-56
2021/12/15 09:27:53;;;;;;;117.72;49.45;;;;;;;8.17;100.00;103014.53;5093110;28;20044;-56
2021/12/15 09:30:21;;;;;;;122.82;53.58;;;;;;;8.18;100.00;103022.34;5092882;28;20032;-56
2021/12/15 09:32:47;;;;;;;;;;;;;;;8.27;100.00;103023.84;5093580;28;20047;-56
2021/12/15 09:35:15;;;;;;;108.25;50.00;;;;;;;8.22;100.00;103024.41;5093189;28;20398;-56
2021/12/15 09:37:41;;;;;;;114.07;53.13;;;;;;;8.22;100.00;103019.25;5092542;28;20487;-57
2021/12/15 09:40:09;;;;;;;112.50;50.60;;;;;;;8.23;100.00;103018.47;5092880;28;20055;-56
2021/12/15 09:42:38;;;;;;;115.22;51.53;;;;;;;8.25;100.00;103028.88;5092989;28;20467;-56
2021/12/15 09:45:23;;;;;;;110.95;50.90;;;;;;;8.26;100.00;103020.34;5092792;28;20027;-56
2021/12/15 10:17:39;;;;;;;99.85;50.33;;;;;;;8.69;100.00;103026.13;5092916;28;20039;-57
2021/12/15 10:20:05;;;;;;;97.07;50.35;;;;;;;8.70;100.00;103021.84;5096693;28;20032;-57
2021/12/15 10:22:44;;;;;;;96.68;51.38;;;;;;;8.74;100.00;103029.03;5096566;28;20472;-57
2021/12/15 10:25:14;;;;;;;97.72;51.33;;;;;;;8.76;100.00;103029.13;5097224;28;20031;-56
2021/12/15 10:27:49;;;;;;;97.82;51.13;;;;;;;8.80;100.00;103029.44;5096155;28;20052;-57
2021/12/15 10:30:30;;;;;;;95.68;50.05;;;;;;;8.83;100.00;103027.13;5096498;28;20024;-56
2021/12/15 10:32:58;;;;;;;92.70;50.92;;;;;;;8.85;100.00;103027.22;5096867;28;20024;-57
2021/12/15 10:35:32;;;;;;;100.85;52.42;;;;;;;8.89;100.00;103024.97;5096158;28;20024;-57
2021/12/15 10:38:29;;;;;;;88.93;49.47;;;;;;;8.93;100.00;103027.78;5096658;28;20032;-57
2021/12/15 10:41:00;;;;;;;92.88;50.17;;;;;;;8.97;100.00;103022.06;5096165;28;20035;-57
2021/12/15 10:43:31;;;;;;;89.32;50.72;;;;;;;9.02;100.00;103020.72;5096466;28;20027;-56
2021/12/15 10:46:00;;;;;;;91.90;50.53;;;;;;;9.06;100.00;103022.69;5096534;28;20028;-56
2021/12/15 10:48:36;;;;;;;93.75;50.22;;;;;;;9.08;100.00;103023.72;5095751;28;20357;-56
2021/12/15 10:51:18;;;;;;;88.22;50.85;;;;;;;9.10;100.00;103023.81;5095978;28;20024;-57
2021/12/15 10:53:43;;;;;;;87.53;48.67;;;;;;;9.06;100.00;103028.75;5096569;28;20427;-56
2021/12/15 10:56:11;;;;;;;86.40;48.95;;;;;;;9.07;100.00;103030.53;5095751;28;20626;-57
2021/12/15 10:58:45;;;;;;;89.50;49.30;;;;;;;9.06;100.00;103036.47;5096588;28;20103;-56
2021/12/15 11:01:30;;;;;;;94.00;50.65;;;;;;;9.10;100.00;103039.25;5096244;28;20032;-56
2021/12/15 11:03:57;;;;;;;97.85;51.78;;;;;;;9.05;100.00;103031.19;5095860;28;20021;-56
2021/12/15 11:06:32;;;;;;;96.97;50.15;;;;;;;9.06;100.00;103027.84;5096153;28;20028;-56
2021/12/15 11:09:20;;;;;;;86.97;50.50;;;;;;;9.13;100.00;103030.09;5095477;28;20054;-57
2021/12/15 11:12:20;;;;;;;91.07;51.33;;;;;;;9.17;100.00;103026.94;5095593;28;20513;-57
2021/12/15 11:14:50;;;;;;;91.93;51.42;;;;;;;9.19;100.00;103019.31;5081151;28;20051;-57
2021/12/15 11:17:22;;;;;;;92.05;51.38;;;;;;;9.22;100.00;103020.44;5095213;28;20024;-57
2021/12/15 11:20:04;;;;;;;93.97;53.33;;;;;;;9.25;100.00;103026.59;5095766;28;20073;-56
2021/12/15 11:22:39;;;;;;;92.35;52.58;;;;;;;9.26;100.00;103025.78;5096009;28;20027;-56
2021/12/15 11:25:19;;;;;;;94.32;54.28;;;;;;;9.28;100.00;103016.50;5095603;28;20047;-57
2021/12/15 11:27:49;;;;;;;91.38;52.13;;;;;;;9.29;100.00;103033.72;5095300;28;20496;-57
2021/12/15 11:30:21;;;;;;;86.85;51.08;;;;;;;9.28;100.00;103025.09;5094555;28;20028;-56
2021/12/15 11:32:49;;;;;;;88.45;52.47;;;;;;;9.27;100.00;103028.47;5095054;28;20035;-57
2021/12/15 11:35:31;;;;;;;93.25;52.72;;;;;;;9.30;100.00;103027.81;5095550;28;20052;-56
2021/12/15 11:38:07;;;;;;;87.90;51.35;;;;;;;9.30;100.00;103018.41;5095028;28;20032;-57
2021/12/15 11:40:40;;;;;;;87.47;51.35;;;;;;;9.33;100.00;103017.72;5095560;28;20099;-57
2021/12/15 11:43:07;;;;;;;89.63;51.75;;;;;;;9.36;100.00;103015.34;5095152;28;20077;-56
2021/12/15 11:45:34;;;;;;;94.90;52.72;;;;;;;9.37;100.00;103019.72;5094582;28;20442;-57
2021/12/15 11:48:20;;;;;;;85.25;51.28;;;;;;;9.40;100.00;103014.78;5095359;28;20116;-57
2021/12/15 11:50:48;;;;;;;89.70;52.40;;;;;;;9.43;100.00;103012.41;5094761;28;20024;-57
2021/12/15 11:53:33;;;;;;;83.22;50.42;;;;;;;9.44;100.00;103016.78;5094827;28;20031;-57
2021/12/15 11:56:20;;;;;;;85.38;50.35;;;;;;;9.49;100.00;103015.44;5094846;28;20028;-57
2021/12/15 11:58:48;;;;;;;82.65;49.70;;;;;;;9.47;100.00;103001.53;5094441;28;20024;-57
2021/12/15 12:01:31;;;;;;;;;;;;;;;9.56;100.00;103002.16;5095251;28;20077;-56
2021/12/15 12:04:24;;;;;;;81.45;48.47;;;;;;;9.50;99.83;103021.44;5094649;28;19912;-57
2021/12/15 12:06:55;;;;;;;79.65;47.97;;;;;;;9.47;99.91;103021.25;5094147;28;20097;-57
2021/12/15 12:09:21;;;;;;;76.20;47.65;;;;;;;9.48;99.69;103017.91;5094838;28;20502;-56
2021/12/15 12:11:54;;;;;;;78.13;47.70;;;;;;;9.47;99.74;103016.97;5094350;28;20028;-54
2021/12/15 12:14:37;;;;;;;76.88;48.50;;;;;;;9.47;99.32;103010.97;5094594;28;20028;-56
2021/12/15 12:17:12;;;;;;;74.65;47.33;;;;;;;9.45;99.28;103005.72;5094651;28;20028;-56
2021/12/15 12:19:44;;;;;;;79.78;47.53;;;;;;;9.48;99.40;103005.91;5094279;28;20027;-56
2021/12/15 12:22:11;;;;;;;80.30;47.65;;;;;;;9.53;99.40;103013.97;5094286;28;20032;-57
2021/12/15 12:24:37;;;;;;;79.10;47.95;;;;;;;9.56;99.24;103001.28;5094691;28;20031;-57
2021/12/15 12:27:04;;;;;;;78.55;48.90;;;;;;;9.57;98.91;102995.34;5093447;28;20036;-56
2021/12/15 12:29:30;;;;;;;75.80;47.90;;;;;;;9.59;99.08;103000.59;5094663;28;20048;-58